sensor_id;sensor_type;location;lat;lon;timestamp;P1;durP1;ratioP1;P2;durP2;ratioP2
67841;SDS011;54642;59.126;37.876;2024-03-06T00:02:24;37.35;;;9.07;;
67841;SDS011;54642;59.126;37.876;2024-03-06T00:04:50;36.97;;;7.78;;
67841;SDS011;54642;59.126;37.876;2024-03-06T00:07:15;45.88;;;17.98;;
67841;SDS011;54642;59.126;37.876;2024-03-06T00:09:41;54.00;;;19.13;;
67841;SDS011;54642;59.126;37.876;2024-03-06T00:12:08;32.42;;;11.35;;
67841;SDS011;54642;59.126;37.876;2024-03-06T00:14:34;35.15;;;8.88;;
67841;SDS011;54642;59.126;37.876;2024-03-06T00:17:01;20.50;;;11.00;;
67841;SDS011;54642;59.126;37.876;2024-03-06T00:19:30;23.65;;;10.80;;
67841;SDS011;54642;59.126;37.876;2024-03-06T00:21:56;27.10;;;11.10;;
67841;SDS011;54642;59.126;37.876;2024-03-06T00:24:22;26.58;;;10.52;;
67841;SDS011;54642;59.126;37.876;2024-03-06T00:26:48;18.23;;;7.78;;
67841;SDS011;54642;59.126;37.876;2024-03-06T00:31:46;27.55;;;7.63;;
67841;SDS011;54642;59.126;37.876;2024-03-06T00:34:12;21.08;;;8.15;;
67841;SDS011;54642;59.126;37.876;2024-03-06T00:36:45;32.72;;;7.57;;
67841;SDS011;54642;59.126;37.876;2024-03-06T00:39:11;31.15;;;10.52;;
67841;SDS011;54642;59.126;37.876;2024-03-06T00:41:39;24.70;;;10.77;;
67841;SDS011;54642;59.126;37.876;2024-03-06T00:44:06;35.53;;;8.45;;
67841;SDS011;54642;59.126;37.876;2024-03-06T00:46:32;29.88;;;8.55;;
67841;SDS011;54642;59.126;37.876;2024-03-06T00:48:58;23.33;;;10.18;;
67841;SDS011;54642;59.126;37.876;2024-03-06T00:51:24;28.90;;;11.55;;
67841;SDS011;54642;59.126;37.876;2024-03-06T00:53:50;47.50;;;19.92;;
67841;SDS011;54642;59.126;37.876;2024-03-06T00:56:15;26.17;;;15.77;;
67841;SDS011;54642;59.126;37.876;2024-03-06T00:58:41;26.13;;;14.70;;
67841;SDS011;54642;59.126;37.876;2024-03-06T01:01:07;25.95;;;10.77;;
67841;SDS011;54642;59.126;37.876;2024-03-06T01:03:33;15.80;;;7.22;;
67841;SDS011;54642;59.126;37.876;2024-03-06T01:05:59;15.75;;;6.03;;
67841;SDS011;54642;59.126;37.876;2024-03-06T01:08:24;13.82;;;5.72;;
67841;SDS011;54642;59.126;37.876;2024-03-06T01:10:51;9.60;;;4.88;;
67841;SDS011;54642;59.126;37.876;2024-03-06T01:13:18;7.47;;;4.50;;
67841;SDS011;54642;59.126;37.876;2024-03-06T01:15:44;7.82;;;4.68;;
67841;SDS011;54642;59.126;37.876;2024-03-06T01:18:10;8.52;;;5.13;;
67841;SDS011;54642;59.126;37.876;2024-03-06T01:23:02;9.30;;;6.10;;
67841;SDS011;54642;59.126;37.876;2024-03-06T01:25:29;10.48;;;6.97;;
67841;SDS011;54642;59.126;37.876;2024-03-06T01:27:54;15.88;;;6.25;;
67841;SDS011;54642;59.126;37.876;2024-03-06T01:32:46;6.45;;;3.58;;
67841;SDS011;54642;59.126;37.876;2024-03-06T01:35:12;5.53;;;4.03;;
67841;SDS011;54642;59.126;37.876;2024-03-06T01:37:38;7.43;;;3.38;;
67841;SDS011;54642;59.126;37.876;2024-03-06T01:40:04;8.43;;;3.75;;
67841;SDS011;54642;59.126;37.876;2024-03-06T01:42:30;6.70;;;5.97;;
67841;SDS011;54642;59.126;37.876;2024-03-06T01:44:56;6.80;;;3.75;;
67841;SDS011;54642;59.126;37.876;2024-03-06T01:47:22;7.97;;;3.95;;
67841;SDS011;54642;59.126;37.876;2024-03-06T01:49:48;6.50;;;4.60;;
67841;SDS011;54642;59.126;37.876;2024-03-06T01:52:14;9.27;;;8.38;;
67841;SDS011;54642;59.126;37.876;2024-03-06T01:54:43;7.57;;;3.13;;
67841;SDS011;54642;59.126;37.876;2024-03-06T01:57:10;8.57;;;3.80;;
67841;SDS011;54642;59.126;37.876;2024-03-06T01:59:38;12.45;;;6.53;;
67841;SDS011;54642;59.126;37.876;2024-03-06T02:02:05;11.60;;;9.23;;
67841;SDS011;54642;59.126;37.876;2024-03-06T02:04:33;14.30;;;9.18;;
67841;SDS011;54642;59.126;37.876;2024-03-06T02:06:59;19.40;;;8.05;;
67841;SDS011;54642;59.126;37.876;2024-03-06T02:11:50;17.17;;;7.45;;
67841;SDS011;54642;59.126;37.876;2024-03-06T02:14:16;12.68;;;6.97;;
67841;SDS011;54642;59.126;37.876;2024-03-06T02:16:42;9.38;;;6.10;;
67841;SDS011;54642;59.126;37.876;2024-03-06T02:19:08;12.70;;;5.57;;
67841;SDS011;54642;59.126;37.876;2024-03-06T02:21:34;12.27;;;5.18;;
67841;SDS011;54642;59.126;37.876;2024-03-06T02:26:26;11.98;;;4.07;;
67841;SDS011;54642;59.126;37.876;2024-03-06T02:28:52;12.65;;;5.97;;
67841;SDS011;54642;59.126;37.876;2024-03-06T02:31:20;8.77;;;4.85;;
67841;SDS011;54642;59.126;37.876;2024-03-06T02:33:48;8.95;;;3.72;;
67841;SDS011;54642;59.126;37.876;2024-03-06T02:36:15;4.72;;;2.85;;
67841;SDS011;54642;59.126;37.876;2024-03-06T02:38:44;6.57;;;3.50;;
67841;SDS011;54642;59.126;37.876;2024-03-06T02:41:11;7.75;;;3.05;;
67841;SDS011;54642;59.126;37.876;2024-03-06T02:43:39;6.25;;;4.45;;
67841;SDS011;54642;59.126;37.876;2024-03-06T02:46:05;9.52;;;4.60;;
67841;SDS011;54642;59.126;37.876;2024-03-06T02:48:31;8.50;;;3.90;;
67841;SDS011;54642;59.126;37.876;2024-03-06T02:50:57;9.77;;;6.45;;
67841;SDS011;54642;59.126;37.876;2024-03-06T02:55:48;33.83;;;15.43;;
67841;SDS011;54642;59.126;37.876;2024-03-06T02:58:15;21.83;;;10.52;;
67841;SDS011;54642;59.126;37.876;2024-03-06T03:00:44;10.90;;;6.15;;
67841;SDS011;54642;59.126;37.876;2024-03-06T03:03:10;27.13;;;11.27;;
67841;SDS011;54642;59.126;37.876;2024-03-06T03:05:39;19.60;;;8.88;;
67841;SDS011;54642;59.126;37.876;2024-03-06T03:08:05;21.85;;;12.90;;
67841;SDS011;54642;59.126;37.876;2024-03-06T03:10:31;23.67;;;14.15;;
67841;SDS011;54642;59.126;37.876;2024-03-06T03:12:59;21.05;;;10.88;;
67841;SDS011;54642;59.126;37.876;2024-03-06T03:15:25;23.23;;;12.45;;
67841;SDS011;54642;59.126;37.876;2024-03-06T03:17:51;22.85;;;12.52;;
67841;SDS011;54642;59.126;37.876;2024-03-06T03:20:17;15.80;;;8.40;;
67841;SDS011;54642;59.126;37.876;2024-03-06T03:22:43;23.60;;;7.95;;
67841;SDS011;54642;59.126;37.876;2024-03-06T03:25:09;21.88;;;7.20;;
67841;SDS011;54642;59.126;37.876;2024-03-06T03:27:37;11.90;;;9.18;;
67841;SDS011;54642;59.126;37.876;2024-03-06T03:30:08;18.17;;;11.60;;
67841;SDS011;54642;59.126;37.876;2024-03-06T03:32:34;20.67;;;13.93;;
67841;SDS011;54642;59.126;37.876;2024-03-06T03:35:00;18.35;;;10.30;;
67841;SDS011;54642;59.126;37.876;2024-03-06T03:37:26;17.98;;;10.38;;
67841;SDS011;54642;59.126;37.876;2024-03-06T03:39:53;17.02;;;12.27;;
67841;SDS011;54642;59.126;37.876;2024-03-06T03:42:19;18.50;;;12.43;;
67841;SDS011;54642;59.126;37.876;2024-03-06T03:44:45;48.70;;;18.58;;
67841;SDS011;54642;59.126;37.876;2024-03-06T03:47:11;39.00;;;19.17;;
67841;SDS011;54642;59.126;37.876;2024-03-06T03:49:37;26.83;;;12.68;;
67841;SDS011;54642;59.126;37.876;2024-03-06T03:54:29;13.50;;;7.65;;
67841;SDS011;54642;59.126;37.876;2024-03-06T03:56:55;11.90;;;8.85;;
67841;SDS011;54642;59.126;37.876;2024-03-06T03:59:21;13.32;;;4.78;;
67841;SDS011;54642;59.126;37.876;2024-03-06T04:01:47;15.45;;;6.22;;
67841;SDS011;54642;59.126;37.876;2024-03-06T04:04:13;13.27;;;5.90;;
67841;SDS011;54642;59.126;37.876;2024-03-06T04:06:39;15.32;;;6.05;;
67841;SDS011;54642;59.126;37.876;2024-03-06T04:09:05;18.05;;;6.63;;
67841;SDS011;54642;59.126;37.876;2024-03-06T04:11:30;23.75;;;9.20;;
67841;SDS011;54642;59.126;37.876;2024-03-06T04:13:59;13.35;;;8.45;;
67841;SDS011;54642;59.126;37.876;2024-03-06T04:16:25;19.17;;;8.00;;
67841;SDS011;54642;59.126;37.876;2024-03-06T04:18:51;13.68;;;8.65;;
67841;SDS011;54642;59.126;37.876;2024-03-06T04:21:17;14.70;;;7.30;;
67841;SDS011;54642;59.126;37.876;2024-03-06T04:23:43;12.57;;;6.65;;
67841;SDS011;54642;59.126;37.876;2024-03-06T04:26:09;9.45;;;5.07;;
67841;SDS011;54642;59.126;37.876;2024-03-06T04:28:35;8.90;;;6.00;;
67841;SDS011;54642;59.126;37.876;2024-03-06T04:31:01;7.20;;;4.28;;
67841;SDS011;54642;59.126;37.876;2024-03-06T04:33:27;8.10;;;6.32;;
67841;SDS011;54642;59.126;37.876;2024-03-06T04:35:53;10.27;;;5.53;;
67841;SDS011;54642;59.126;37.876;2024-03-06T04:38:19;10.88;;;5.25;;
67841;SDS011;54642;59.126;37.876;2024-03-06T04:40:44;6.75;;;5.68;;
67841;SDS011;54642;59.126;37.876;2024-03-06T04:43:10;5.95;;;3.65;;
67841;SDS011;54642;59.126;37.876;2024-03-06T04:45:36;6.70;;;4.35;;
67841;SDS011;54642;59.126;37.876;2024-03-06T04:48:02;9.23;;;8.02;;
67841;SDS011;54642;59.126;37.876;2024-03-06T04:50:28;13.00;;;7.72;;
67841;SDS011;54642;59.126;37.876;2024-03-06T04:52:54;12.70;;;8.30;;
67841;SDS011;54642;59.126;37.876;2024-03-06T04:55:21;21.98;;;11.82;;
67841;SDS011;54642;59.126;37.876;2024-03-06T04:57:48;27.55;;;12.48;;
67841;SDS011;54642;59.126;37.876;2024-03-06T05:00:14;19.13;;;11.10;;
67841;SDS011;54642;59.126;37.876;2024-03-06T05:05:07;18.77;;;8.10;;
67841;SDS011;54642;59.126;37.876;2024-03-06T05:07:33;15.73;;;9.25;;
67841;SDS011;54642;59.126;37.876;2024-03-06T05:09:59;13.02;;;6.50;;
67841;SDS011;54642;59.126;37.876;2024-03-06T05:12:26;14.98;;;8.02;;
67841;SDS011;54642;59.126;37.876;2024-03-06T05:14:53;13.30;;;5.25;;
67841;SDS011;54642;59.126;37.876;2024-03-06T05:17:19;7.32;;;4.13;;
67841;SDS011;54642;59.126;37.876;2024-03-06T05:19:45;7.97;;;3.90;;
67841;SDS011;54642;59.126;37.876;2024-03-06T05:22:13;7.30;;;3.65;;
67841;SDS011;54642;59.126;37.876;2024-03-06T05:24:39;6.53;;;5.43;;
67841;SDS011;54642;59.126;37.876;2024-03-06T05:27:06;7.43;;;3.72;;
67841;SDS011;54642;59.126;37.876;2024-03-06T05:29:32;7.35;;;4.82;;
67841;SDS011;54642;59.126;37.876;2024-03-06T05:31:58;8.13;;;6.50;;
67841;SDS011;54642;59.126;37.876;2024-03-06T05:34:24;10.00;;;6.65;;
67841;SDS011;54642;59.126;37.876;2024-03-06T05:36:50;8.20;;;4.85;;
67841;SDS011;54642;59.126;37.876;2024-03-06T05:39:16;6.20;;;3.92;;
67841;SDS011;54642;59.126;37.876;2024-03-06T05:41:43;10.50;;;6.53;;
67841;SDS011;54642;59.126;37.876;2024-03-06T05:44:09;8.35;;;4.65;;
67841;SDS011;54642;59.126;37.876;2024-03-06T05:46:35;17.63;;;4.93;;
67841;SDS011;54642;59.126;37.876;2024-03-06T05:49:01;9.98;;;5.20;;
67841;SDS011;54642;59.126;37.876;2024-03-06T05:51:28;12.32;;;8.45;;
67841;SDS011;54642;59.126;37.876;2024-03-06T05:53:54;11.75;;;6.05;;
67841;SDS011;54642;59.126;37.876;2024-03-06T05:56:20;9.70;;;7.05;;
67841;SDS011;54642;59.126;37.876;2024-03-06T05:58:46;9.55;;;4.72;;
67841;SDS011;54642;59.126;37.876;2024-03-06T06:01:15;6.18;;;3.90;;
67841;SDS011;54642;59.126;37.876;2024-03-06T06:03:46;15.32;;;7.43;;
67841;SDS011;54642;59.126;37.876;2024-03-06T06:06:14;17.13;;;6.07;;
67841;SDS011;54642;59.126;37.876;2024-03-06T06:08:40;10.25;;;4.63;;
67841;SDS011;54642;59.126;37.876;2024-03-06T06:11:06;12.00;;;3.72;;
67841;SDS011;54642;59.126;37.876;2024-03-06T06:13:33;15.45;;;4.38;;
67841;SDS011;54642;59.126;37.876;2024-03-06T06:15:59;11.20;;;4.13;;
67841;SDS011;54642;59.126;37.876;2024-03-06T06:18:28;9.00;;;3.67;;
67841;SDS011;54642;59.126;37.876;2024-03-06T06:20:54;5.63;;;3.42;;
67841;SDS011;54642;59.126;37.876;2024-03-06T06:23:20;13.00;;;6.53;;
67841;SDS011;54642;59.126;37.876;2024-03-06T06:25:46;11.52;;;5.13;;
67841;SDS011;54642;59.126;37.876;2024-03-06T06:28:11;8.73;;;4.43;;
67841;SDS011;54642;59.126;37.876;2024-03-06T06:30:37;13.18;;;6.43;;
67841;SDS011;54642;59.126;37.876;2024-03-06T06:33:06;23.23;;;9.98;;
67841;SDS011;54642;59.126;37.876;2024-03-06T06:35:33;15.60;;;6.15;;
67841;SDS011;54642;59.126;37.876;2024-03-06T06:38:00;11.48;;;5.38;;
67841;SDS011;54642;59.126;37.876;2024-03-06T06:40:26;14.52;;;5.97;;
67841;SDS011;54642;59.126;37.876;2024-03-06T06:42:53;9.00;;;5.05;;
67841;SDS011;54642;59.126;37.876;2024-03-06T06:45:20;16.45;;;5.30;;
67841;SDS011;54642;59.126;37.876;2024-03-06T06:47:49;9.80;;;5.00;;
67841;SDS011;54642;59.126;37.876;2024-03-06T06:50:16;11.15;;;5.60;;
67841;SDS011;54642;59.126;37.876;2024-03-06T06:52:42;11.00;;;4.47;;
67841;SDS011;54642;59.126;37.876;2024-03-06T06:55:08;11.85;;;3.95;;
67841;SDS011;54642;59.126;37.876;2024-03-06T06:57:37;15.82;;;6.32;;
67841;SDS011;54642;59.126;37.876;2024-03-06T07:02:39;15.40;;;4.32;;
67841;SDS011;54642;59.126;37.876;2024-03-06T07:05:06;12.05;;;5.47;;
67841;SDS011;54642;59.126;37.876;2024-03-06T07:07:33;9.68;;;3.90;;
67841;SDS011;54642;59.126;37.876;2024-03-06T07:10:00;10.18;;;5.35;;
67841;SDS011;54642;59.126;37.876;2024-03-06T07:12:27;8.45;;;3.97;;
67841;SDS011;54642;59.126;37.876;2024-03-06T07:14:53;9.82;;;6.07;;
67841;SDS011;54642;59.126;37.876;2024-03-06T07:17:19;6.80;;;4.10;;
67841;SDS011;54642;59.126;37.876;2024-03-06T07:19:44;11.27;;;6.25;;
67841;SDS011;54642;59.126;37.876;2024-03-06T07:22:10;9.75;;;4.63;;
67841;SDS011;54642;59.126;37.876;2024-03-06T07:24:36;10.90;;;4.13;;
67841;SDS011;54642;59.126;37.876;2024-03-06T07:27:02;6.70;;;4.63;;
67841;SDS011;54642;59.126;37.876;2024-03-06T07:29:28;14.88;;;5.15;;
67841;SDS011;54642;59.126;37.876;2024-03-06T07:31:55;10.40;;;4.03;;
67841;SDS011;54642;59.126;37.876;2024-03-06T07:34:20;24.02;;;10.25;;
67841;SDS011;54642;59.126;37.876;2024-03-06T07:36:49;26.70;;;5.13;;
67841;SDS011;54642;59.126;37.876;2024-03-06T07:39:15;19.05;;;4.53;;
67841;SDS011;54642;59.126;37.876;2024-03-06T07:44:07;13.68;;;3.83;;
67841;SDS011;54642;59.126;37.876;2024-03-06T07:46:34;10.55;;;4.78;;
67841;SDS011;54642;59.126;37.876;2024-03-06T07:49:00;19.42;;;5.22;;
67841;SDS011;54642;59.126;37.876;2024-03-06T07:51:28;16.58;;;5.55;;
67841;SDS011;54642;59.126;37.876;2024-03-06T07:53:58;16.20;;;5.32;;
67841;SDS011;54642;59.126;37.876;2024-03-06T07:56:24;11.32;;;5.30;;
67841;SDS011;54642;59.126;37.876;2024-03-06T07:58:51;30.80;;;9.65;;
67841;SDS011;54642;59.126;37.876;2024-03-06T08:01:17;18.38;;;6.93;;
67841;SDS011;54642;59.126;37.876;2024-03-06T08:03:43;21.85;;;8.55;;
67841;SDS011;54642;59.126;37.876;2024-03-06T08:06:09;21.83;;;8.30;;
67841;SDS011;54642;59.126;37.876;2024-03-06T08:08:36;13.85;;;6.85;;
67841;SDS011;54642;59.126;37.876;2024-03-06T08:11:02;17.02;;;4.43;;
67841;SDS011;54642;59.126;37.876;2024-03-06T08:13:28;16.20;;;4.53;;
67841;SDS011;54642;59.126;37.876;2024-03-06T08:18:20;7.43;;;4.38;;
67841;SDS011;54642;59.126;37.876;2024-03-06T08:20:46;10.35;;;3.55;;
67841;SDS011;54642;59.126;37.876;2024-03-06T08:23:12;9.95;;;3.90;;
67841;SDS011;54642;59.126;37.876;2024-03-06T08:25:38;7.85;;;3.00;;
67841;SDS011;54642;59.126;37.876;2024-03-06T08:28:04;10.70;;;3.78;;
67841;SDS011;54642;59.126;37.876;2024-03-06T08:30:31;23.48;;;11.23;;
67841;SDS011;54642;59.126;37.876;2024-03-06T08:32:57;17.73;;;12.60;;
67841;SDS011;54642;59.126;37.876;2024-03-06T08:37:50;26.48;;;10.82;;
67841;SDS011;54642;59.126;37.876;2024-03-06T08:40:16;18.13;;;6.10;;
67841;SDS011;54642;59.126;37.876;2024-03-06T08:42:45;16.60;;;4.28;;
67841;SDS011;54642;59.126;37.876;2024-03-06T08:45:14;8.88;;;3.47;;
67841;SDS011;54642;59.126;37.876;2024-03-06T08:47:41;12.82;;;5.13;;
67841;SDS011;54642;59.126;37.876;2024-03-06T08:50:08;11.75;;;6.18;;
67841;SDS011;54642;59.126;37.876;2024-03-06T08:52:35;21.80;;;8.55;;
67841;SDS011;54642;59.126;37.876;2024-03-06T08:55:01;39.63;;;12.60;;
67841;SDS011;54642;59.126;37.876;2024-03-06T08:57:31;29.48;;;9.98;;
67841;SDS011;54642;59.126;37.876;2024-03-06T08:59:57;23.73;;;10.25;;
67841;SDS011;54642;59.126;37.876;2024-03-06T09:02:24;14.07;;;7.78;;
67841;SDS011;54642;59.126;37.876;2024-03-06T09:04:51;15.65;;;7.40;;
67841;SDS011;54642;59.126;37.876;2024-03-06T09:07:17;19.95;;;8.00;;
67841;SDS011;54642;59.126;37.876;2024-03-06T09:09:44;14.52;;;6.78;;
67841;SDS011;54642;59.126;37.876;2024-03-06T09:14:36;30.77;;;12.40;;
67841;SDS011;54642;59.126;37.876;2024-03-06T09:17:03;20.80;;;10.80;;
67841;SDS011;54642;59.126;37.876;2024-03-06T09:21:56;16.70;;;7.05;;
67841;SDS011;54642;59.126;37.876;2024-03-06T09:24:22;11.90;;;4.80;;
67841;SDS011;54642;59.126;37.876;2024-03-06T09:26:50;16.00;;;7.95;;
67841;SDS011;54642;59.126;37.876;2024-03-06T09:29:16;11.25;;;4.60;;
67841;SDS011;54642;59.126;37.876;2024-03-06T09:31:42;5.05;;;2.35;;
67841;SDS011;54642;59.126;37.876;2024-03-06T09:36:41;8.00;;;4.65;;
67841;SDS011;54642;59.126;37.876;2024-03-06T09:39:11;6.50;;;4.65;;
67841;SDS011;54642;59.126;37.876;2024-03-06T09:41:45;11.57;;;10.15;;
67841;SDS011;54642;59.126;37.876;2024-03-06T09:44:22;11.43;;;6.93;;
67841;SDS011;54642;59.126;37.876;2024-03-06T09:46:48;5.47;;;2.90;;
67841;SDS011;54642;59.126;37.876;2024-03-06T09:49:15;4.22;;;3.20;;
67841;SDS011;54642;59.126;37.876;2024-03-06T09:51:45;8.80;;;2.78;;
67841;SDS011;54642;59.126;37.876;2024-03-06T09:54:14;10.65;;;3.78;;
67841;SDS011;54642;59.126;37.876;2024-03-06T09:56:44;5.80;;;2.42;;
67841;SDS011;54642;59.126;37.876;2024-03-06T09:59:11;12.55;;;6.28;;
67841;SDS011;54642;59.126;37.876;2024-03-06T10:01:39;7.57;;;3.35;;
67841;SDS011;54642;59.126;37.876;2024-03-06T10:04:20;14.65;;;5.93;;
67841;SDS011;54642;59.126;37.876;2024-03-06T10:06:47;12.75;;;4.22;;
67841;SDS011;54642;59.126;37.876;2024-03-06T10:09:16;12.63;;;4.45;;
67841;SDS011;54642;59.126;37.876;2024-03-06T10:11:42;11.73;;;4.82;;
67841;SDS011;54642;59.126;37.876;2024-03-06T10:14:08;12.20;;;4.32;;
67841;SDS011;54642;59.126;37.876;2024-03-06T10:16:35;10.07;;;3.22;;
67841;SDS011;54642;59.126;37.876;2024-03-06T10:19:14;9.18;;;4.00;;
67841;SDS011;54642;59.126;37.876;2024-03-06T10:21:43;12.02;;;7.45;;
67841;SDS011;54642;59.126;37.876;2024-03-06T10:24:28;14.35;;;5.13;;
67841;SDS011;54642;59.126;37.876;2024-03-06T10:26:55;7.78;;;4.72;;
67841;SDS011;54642;59.126;37.876;2024-03-06T10:29:23;10.90;;;7.90;;
67841;SDS011;54642;59.126;37.876;2024-03-06T10:31:54;9.50;;;3.13;;
67841;SDS011;54642;59.126;37.876;2024-03-06T10:34:22;7.35;;;2.63;;
67841;SDS011;54642;59.126;37.876;2024-03-06T10:36:52;6.00;;;2.20;;
67841;SDS011;54642;59.126;37.876;2024-03-06T10:39:20;18.73;;;7.72;;
67841;SDS011;54642;59.126;37.876;2024-03-06T10:41:50;14.00;;;6.63;;
67841;SDS011;54642;59.126;37.876;2024-03-06T10:44:21;9.27;;;4.75;;
67841;SDS011;54642;59.126;37.876;2024-03-06T10:49:23;11.27;;;4.28;;
67841;SDS011;54642;59.126;37.876;2024-03-06T10:52:03;24.00;;;13.50;;
67841;SDS011;54642;59.126;37.876;2024-03-06T10:54:32;10.57;;;3.63;;
67841;SDS011;54642;59.126;37.876;2024-03-06T10:57:00;8.32;;;4.10;;
67841;SDS011;54642;59.126;37.876;2024-03-06T10:59:28;6.90;;;5.53;;
67841;SDS011;54642;59.126;37.876;2024-03-06T11:01:55;16.92;;;3.88;;
67841;SDS011;54642;59.126;37.876;2024-03-06T11:04:23;18.45;;;4.55;;
67841;SDS011;54642;59.126;37.876;2024-03-06T11:06:51;15.77;;;3.08;;
67841;SDS011;54642;59.126;37.876;2024-03-06T11:09:18;19.77;;;4.93;;
67841;SDS011;54642;59.126;37.876;2024-03-06T11:11:47;11.32;;;4.75;;
67841;SDS011;54642;59.126;37.876;2024-03-06T11:14:14;8.98;;;3.92;;
67841;SDS011;54642;59.126;37.876;2024-03-06T11:19:25;15.23;;;2.95;;
67841;SDS011;54642;59.126;37.876;2024-03-06T11:21:52;9.95;;;4.60;;
67841;SDS011;54642;59.126;37.876;2024-03-06T11:24:18;8.13;;;4.32;;
67841;SDS011;54642;59.126;37.876;2024-03-06T11:26:46;6.97;;;4.05;;
67841;SDS011;54642;59.126;37.876;2024-03-06T11:29:15;8.57;;;4.45;;
67841;SDS011;54642;59.126;37.876;2024-03-06T11:32:02;5.55;;;4.13;;
67841;SDS011;54642;59.126;37.876;2024-03-06T11:34:33;4.97;;;2.95;;
67841;SDS011;54642;59.126;37.876;2024-03-06T11:37:03;13.63;;;2.75;;
67841;SDS011;54642;59.126;37.876;2024-03-06T11:39:33;7.13;;;3.47;;
67841;SDS011;54642;59.126;37.876;2024-03-06T11:42:02;9.05;;;4.60;;
67841;SDS011;54642;59.126;37.876;2024-03-06T11:44:31;14.70;;;5.90;;
67841;SDS011;54642;59.126;37.876;2024-03-06T11:46:59;14.50;;;4.18;;
67841;SDS011;54642;59.126;37.876;2024-03-06T11:49:28;5.72;;;2.05;;
67841;SDS011;54642;59.126;37.876;2024-03-06T11:52:02;5.93;;;4.15;;
67841;SDS011;54642;59.126;37.876;2024-03-06T11:54:36;2.40;;;1.55;;
67841;SDS011;54642;59.126;37.876;2024-03-06T11:57:03;5.78;;;4.18;;
67841;SDS011;54642;59.126;37.876;2024-03-06T11:59:31;6.80;;;4.25;;
67841;SDS011;54642;59.126;37.876;2024-03-06T12:02:04;7.28;;;4.05;;
67841;SDS011;54642;59.126;37.876;2024-03-06T12:04:31;4.47;;;1.75;;
67841;SDS011;54642;59.126;37.876;2024-03-06T12:07:04;5.38;;;3.85;;
67841;SDS011;54642;59.126;37.876;2024-03-06T12:09:34;3.78;;;2.85;;
67841;SDS011;54642;59.126;37.876;2024-03-06T12:12:01;5.63;;;4.03;;
67841;SDS011;54642;59.126;37.876;2024-03-06T12:14:28;8.75;;;3.60;;
67841;SDS011;54642;59.126;37.876;2024-03-06T12:19:27;5.75;;;4.13;;
67841;SDS011;54642;59.126;37.876;2024-03-06T12:21:53;7.93;;;5.30;;
67841;SDS011;54642;59.126;37.876;2024-03-06T12:24:19;5.15;;;4.13;;
67841;SDS011;54642;59.126;37.876;2024-03-06T12:26:46;5.35;;;3.58;;
67841;SDS011;54642;59.126;37.876;2024-03-06T12:29:17;5.18;;;3.75;;
67841;SDS011;54642;59.126;37.876;2024-03-06T12:31:46;14.52;;;5.10;;
67841;SDS011;54642;59.126;37.876;2024-03-06T12:36:44;6.85;;;3.88;;
67841;SDS011;54642;59.126;37.876;2024-03-06T12:39:14;8.77;;;5.82;;
67841;SDS011;54642;59.126;37.876;2024-03-06T12:41:43;6.80;;;3.70;;
67841;SDS011;54642;59.126;37.876;2024-03-06T12:44:10;16.23;;;9.48;;
67841;SDS011;54642;59.126;37.876;2024-03-06T12:49:02;5.25;;;2.08;;
67841;SDS011;54642;59.126;37.876;2024-03-06T12:51:27;4.50;;;3.08;;
67841;SDS011;54642;59.126;37.876;2024-03-06T12:56:19;6.82;;;3.92;;
67841;SDS011;54642;59.126;37.876;2024-03-06T13:01:10;5.22;;;4.75;;
67841;SDS011;54642;59.126;37.876;2024-03-06T13:06:02;6.97;;;2.72;;
67841;SDS011;54642;59.126;37.876;2024-03-06T13:08:29;9.93;;;5.22;;
67841;SDS011;54642;59.126;37.876;2024-03-06T13:10:56;9.90;;;7.55;;
67841;SDS011;54642;59.126;37.876;2024-03-06T13:15:51;15.20;;;5.13;;
67841;SDS011;54642;59.126;37.876;2024-03-06T13:18:17;7.80;;;5.82;;
67841;SDS011;54642;59.126;37.876;2024-03-06T13:20:44;5.35;;;4.05;;
67841;SDS011;54642;59.126;37.876;2024-03-06T13:23:10;6.03;;;3.75;;
67841;SDS011;54642;59.126;37.876;2024-03-06T13:25:37;3.22;;;2.67;;
67841;SDS011;54642;59.126;37.876;2024-03-06T13:30:29;4.45;;;3.97;;
67841;SDS011;54642;59.126;37.876;2024-03-06T13:32:54;4.25;;;3.80;;
67841;SDS011;54642;59.126;37.876;2024-03-06T13:35:21;5.13;;;4.05;;
67841;SDS011;54642;59.126;37.876;2024-03-06T13:37:46;5.30;;;4.80;;
67841;SDS011;54642;59.126;37.876;2024-03-06T13:42:47;24.50;;;10.15;;
67841;SDS011;54642;59.126;37.876;2024-03-06T13:45:13;57.97;;;25.58;;
67841;SDS011;54642;59.126;37.876;2024-03-06T13:50:09;10.50;;;4.78;;
67841;SDS011;54642;59.126;37.876;2024-03-06T13:52:37;19.45;;;9.05;;
67841;SDS011;54642;59.126;37.876;2024-03-06T13:55:03;7.68;;;5.32;;
67841;SDS011;54642;59.126;37.876;2024-03-06T13:57:31;9.82;;;4.75;;
67841;SDS011;54642;59.126;37.876;2024-03-06T14:00:05;8.60;;;5.50;;
67841;SDS011;54642;59.126;37.876;2024-03-06T14:02:41;6.72;;;3.72;;
67841;SDS011;54642;59.126;37.876;2024-03-06T14:05:07;15.40;;;4.28;;
67841;SDS011;54642;59.126;37.876;2024-03-06T14:07:33;6.35;;;5.10;;
67841;SDS011;54642;59.126;37.876;2024-03-06T14:10:00;11.80;;;4.97;;
67841;SDS011;54642;59.126;37.876;2024-03-06T14:12:26;9.88;;;6.07;;
67841;SDS011;54642;59.126;37.876;2024-03-06T14:17:17;14.88;;;7.80;;
67841;SDS011;54642;59.126;37.876;2024-03-06T14:22:10;14.90;;;7.18;;
67841;SDS011;54642;59.126;37.876;2024-03-06T14:27:02;41.42;;;16.83;;
67841;SDS011;54642;59.126;37.876;2024-03-06T14:29:29;29.23;;;13.55;;
67841;SDS011;54642;59.126;37.876;2024-03-06T14:31:55;15.27;;;8.00;;
67841;SDS011;54642;59.126;37.876;2024-03-06T14:34:21;10.02;;;5.43;;
67841;SDS011;54642;59.126;37.876;2024-03-06T14:36:50;12.43;;;10.65;;
67841;SDS011;54642;59.126;37.876;2024-03-06T14:39:17;8.60;;;4.97;;
67841;SDS011;54642;59.126;37.876;2024-03-06T14:41:43;7.53;;;5.30;;
67841;SDS011;54642;59.126;37.876;2024-03-06T14:44:10;11.80;;;7.60;;
67841;SDS011;54642;59.126;37.876;2024-03-06T14:46:36;8.77;;;4.85;;
67841;SDS011;54642;59.126;37.876;2024-03-06T14:49:02;14.23;;;7.07;;
67841;SDS011;54642;59.126;37.876;2024-03-06T14:51:28;9.13;;;6.03;;
67841;SDS011;54642;59.126;37.876;2024-03-06T14:53:55;7.82;;;5.45;;
67841;SDS011;54642;59.126;37.876;2024-03-06T14:56:21;8.27;;;5.60;;
67841;SDS011;54642;59.126;37.876;2024-03-06T14:58:47;7.65;;;4.25;;
67841;SDS011;54642;59.126;37.876;2024-03-06T15:01:13;7.63;;;4.68;;
67841;SDS011;54642;59.126;37.876;2024-03-06T15:03:39;8.45;;;4.47;;
67841;SDS011;54642;59.126;37.876;2024-03-06T15:06:06;7.30;;;4.22;;
67841;SDS011;54642;59.126;37.876;2024-03-06T15:08:34;7.65;;;5.70;;
67841;SDS011;54642;59.126;37.876;2024-03-06T15:11:00;9.88;;;6.72;;
67841;SDS011;54642;59.126;37.876;2024-03-06T15:13:26;9.25;;;6.13;;
67841;SDS011;54642;59.126;37.876;2024-03-06T15:15:52;8.60;;;5.00;;
67841;SDS011;54642;59.126;37.876;2024-03-06T15:18:18;37.17;;;18.92;;
67841;SDS011;54642;59.126;37.876;2024-03-06T15:20:43;15.57;;;8.90;;
67841;SDS011;54642;59.126;37.876;2024-03-06T15:23:10;7.80;;;5.68;;
67841;SDS011;54642;59.126;37.876;2024-03-06T15:25:36;8.27;;;5.97;;
67841;SDS011;54642;59.126;37.876;2024-03-06T15:28:02;7.35;;;3.42;;
67841;SDS011;54642;59.126;37.876;2024-03-06T15:30:28;11.95;;;4.82;;
67841;SDS011;54642;59.126;37.876;2024-03-06T15:32:56;7.25;;;5.35;;
67841;SDS011;54642;59.126;37.876;2024-03-06T15:37:48;8.65;;;4.68;;
67841;SDS011;54642;59.126;37.876;2024-03-06T15:40:14;8.60;;;4.85;;
67841;SDS011;54642;59.126;37.876;2024-03-06T15:42:41;7.47;;;4.97;;